Time;durP1;ratioP1;P1;durP2;ratioP2;P2;SDS_P1;SDS_P2;PMS_P1;PMS_P2;Temp;Humidity;BMP_temperature;BMP_pressure;BME280_temperature;BME280_humidity;BME280_pressure;Samples;Min_cycle;Max_cycle;Signal;HPM_P1;HPM_P2
2021/11/05 00:04:18;;;;;;;6.27;2.70;;;;;6.80;101090.00;;;;10536299;28;20200;-78
2021/11/05 00:09:20;;;;;;;6.07;3.20;;;;;6.80;101095.00;;;;10536093;28;20196;-78
2021/11/05 00:14:22;;;;;;;7.43;3.23;;;;;6.70;101092.00;;;;10535120;28;20269;-78
2021/11/05 00:19:24;;;;;;;7.63;3.20;;;;;6.70;101101.00;;;;10552382;28;20230;-78
2021/11/05 00:24:26;;;;;;;10.13;3.10;;;;;6.60;101109.00;;;;10518077;28;20198;-78
2021/11/05 00:29:27;;;;;;;4.87;2.27;;;;;6.50;101111.00;;;;10504978;28;20239;-78
2021/11/05 00:34:29;;;;;;;6.17;3.10;;;;;6.50;101129.00;;;;10509341;28;20236;-78
2021/11/05 00:39:32;;;;;;;5.93;2.40;;;;;6.50;101120.00;;;;10491392;28;20193;-78
2021/11/05 00:44:34;;;;;;;3.90;2.43;;;;;6.40;101127.00;;;;10508766;28;20674;-78
2021/11/05 00:49:35;;;;;;;4.83;2.20;;;;;6.40;101133.00;;;;10513338;28;20220;-78
2021/11/05 00:54:37;;;;;;;6.13;2.23;;;;;6.40;101152.00;;;;10517135;28;20602;-77
2021/11/05 00:59:40;;;;;;;4.83;2.57;;;;;6.30;101162.00;;;;10533941;28;20677;-78
2021/11/05 01:04:42;;;;;;;8.00;5.47;;;;;6.20;101170.00;;;;10533119;28;20196;-77
2021/11/05 01:09:44;;;;;;;10.43;6.70;;;;;6.20;101176.00;;;;10524494;28;20185;-78
2021/11/05 01:14:47;;;;;;;11.33;6.87;;;;;6.20;101181.00;;;;10475119;28;20227;-77
2021/11/05 01:19:49;;;;;;;8.33;5.90;;;;;6.20;101182.00;;;;10474644;28;20193;-78
2021/11/05 01:24:51;;;;;;;14.77;5.60;;;;;6.30;101178.00;;;;10507466;28;20216;-78
2021/11/05 01:29:57;;;;;;;8.50;4.47;;;;;6.40;101197.00;;;;10506961;28;20184;-78
2021/11/05 01:34:59;;;;;;;7.67;3.97;;;;;6.40;101188.00;;;;10490471;28;20622;-78
2021/11/05 01:40:03;;;;;;;8.17;3.40;;;;;6.50;101202.00;;;;10491008;28;20197;-78
2021/11/05 01:45:07;;;;;;;7.57;3.77;;;;;6.60;101210.00;;;;10507338;28;20189;-78
2021/11/05 01:50:09;;;;;;;4.20;2.80;;;;;6.70;101212.00;;;;10489780;28;20212;-78
2021/11/05 01:55:12;;;;;;;5.43;3.10;;;;;6.70;101215.00;;;;10490085;28;20208;-78
2021/11/05 02:00:19;;;;;;;6.87;3.80;;;;;6.80;101223.00;;;;10542835;28;20947;-78
2021/11/05 02:05:21;;;;;;;7.67;3.60;;;;;6.70;101224.00;;;;10515277;28;20208;-78
2021/11/05 02:10:27;;;;;;;4.97;3.27;;;;;6.60;101236.00;;;;10548198;28;20209;-78
2021/11/05 02:15:29;;;;;;;8.97;3.50;;;;;6.40;101226.00;;;;10515173;28;20196;-78
2021/11/05 02:20:31;;;;;;;7.17;4.10;;;;;6.30;101239.00;;;;10548001;28;20242;-78
2021/11/05 02:25:34;;;;;;;6.17;3.87;;;;;6.20;101243.00;;;;10547424;28;20234;-78
2021/11/05 02:30:35;;;;;;;6.47;3.40;;;;;6.10;101259.00;;;;10547354;28;20192;-78
2021/11/05 02:35:38;;;;;;;8.40;3.60;;;;;6.10;101254.00;;;;10548143;28;20750;-78
2021/11/05 02:40:40;;;;;;;7.77;3.43;;;;;6.00;101253.00;;;;10548784;28;20214;-77
2021/11/05 02:45:50;;;;;;;4.93;3.47;;;;;5.90;101258.00;;;;10530366;28;20698;-77
2021/11/05 02:50:52;;;;;;;7.80;3.20;;;;;5.80;101265.00;;;;10514076;28;20692;-78
2021/11/05 02:55:54;;;;;;;7.37;3.17;;;;;5.80;101274.00;;;;10530056;28;20204;-78
2021/11/05 03:00:58;;;;;;;9.10;3.17;;;;;5.70;101276.00;;;;10513456;28;20201;-78
2021/11/05 03:06:01;;;;;;;5.63;3.20;;;;;5.70;101283.00;;;;10537674;28;20196;-79
2021/11/05 03:11:03;;;;;;;7.00;3.20;;;;;5.60;101286.00;;;;10537074;28;20245;-78
2021/11/05 03:16:05;;;;;;;5.63;2.97;;;;;5.60;101287.00;;;;10553661;28;20208;-78
2021/11/05 03:21:08;;;;;;;4.60;3.20;;;;;5.60;101296.00;;;;10520022;28;20200;-78
2021/11/05 03:26:11;;;;;;;7.60;2.97;;;;;5.60;101306.00;;;;10553985;28;20226;-78
2021/11/05 03:31:13;;;;;;;9.10;3.20;;;;;5.70;101306.00;;;;10520272;28;20605;-78
2021/11/05 03:36:14;;;;;;;5.50;3.13;;;;;5.70;101309.00;;;;10536669;28;20212;-78
2021/11/05 03:41:17;;;;;;;7.20;3.63;;;;;5.70;101318.00;;;;10536577;28;20222;-78
2021/11/05 03:46:19;;;;;;;8.53;4.20;;;;;5.70;101335.00;;;;10536011;28;20238;-78
2021/11/05 03:51:21;;;;;;;10.63;3.70;;;;;5.80;101338.00;;;;10536157;28;20188;-78
2021/11/05 03:56:24;;;;;;;10.23;4.70;;;;;5.80;101343.00;;;;10535212;28;20261;-78
2021/11/05 04:01:26;;;;;;;12.13;4.77;;;;;5.80;101367.00;;;;10518946;28;20192;-78
2021/11/05 04:06:28;;;;;;;9.60;5.20;;;;;5.90;101372.00;;;;10518478;28;20195;-78
2021/11/05 04:11:30;;;;;;;12.07;5.97;;;;;5.90;101379.00;;;;10518134;28;20196;-78
2021/11/05 04:16:32;;;;;;;16.00;6.00;;;;;5.80;101391.00;;;;10551203;28;20216;-78
2021/11/05 04:21:34;;;;;;;8.30;5.43;;;;;5.80;101396.00;;;;10551377;28;20200;-78
2021/11/05 04:26:36;;;;;;;12.27;6.07;;;;;5.80;101398.00;;;;10551466;28;20257;-78
2021/11/05 04:31:38;;;;;;;15.30;6.50;;;;;5.80;101407.00;;;;10533965;28;20195;-78
2021/11/05 04:36:40;;;;;;;13.33;6.30;;;;;5.80;101416.00;;;;10549961;28;20212;-78
2021/11/05 04:41:42;;;;;;;19.67;8.40;;;;;5.90;101432.00;;;;10517252;28;20188;-78
2021/11/05 04:46:44;;;;;;;16.00;7.63;;;;;5.90;101443.00;;;;10533536;28;20238;-78
2021/11/05 04:51:46;;;;;;;21.00;9.53;;;;;5.90;101452.00;;;;10533152;28;20192;-78
2021/11/05 04:56:48;;;;;;;25.07;10.43;;;;;5.90;101452.00;;;;10532735;28;20670;-78
2021/11/05 05:01:50;;;;;;;29.83;9.43;;;;;5.90;101463.00;;;;10549326;28;20621;-78
2021/11/05 05:06:52;;;;;;;24.73;9.90;;;;;6.00;101467.00;;;;10532142;28;20188;-78
2021/11/05 05:11:54;;;;;;;35.77;12.30;;;;;6.00;101475.00;;;;10515552;28;20245;-78
2021/11/05 05:16:56;;;;;;;29.57;10.60;;;;;6.10;101483.00;;;;10532225;28;20204;-78
2021/11/05 05:21:59;;;;;;;34.63;12.20;;;;;6.10;101493.00;;;;10565910;28;20197;-78
2021/11/05 05:27:02;;;;;;;25.77;10.23;;;;;6.00;101497.00;;;;10531647;28;20187;-78
2021/11/05 05:32:04;;;;;;;31.73;11.87;;;;;6.00;101504.00;;;;10548386;28;20612;-78
2021/11/05 05:37:06;;;;;;;28.83;11.60;;;;;6.00;101513.00;;;;10531341;28;20686;-78
2021/11/05 05:42:08;;;;;;;29.13;10.90;;;;;5.90;101515.00;;;;10548234;28;20242;-78
2021/11/05 05:47:10;;;;;;;28.43;10.13;;;;;5.80;101521.00;;;;10531615;28;20200;-78
2021/11/05 05:52:12;;;;;;;25.73;9.80;;;;;5.60;101526.00;;;;10514365;28;20241;-79
2021/11/05 05:57:14;;;;;;;29.47;9.90;;;;;5.50;101533.00;;;;10531102;28;20257;-78
2021/11/05 06:02:16;;;;;;;20.57;9.70;;;;;5.40;101540.00;;;;10514171;28;20655;-78
2021/11/05 06:07:17;;;;;;;21.60;10.03;;;;;5.40;101554.00;;;;10514374;28;20225;-78
2021/11/05 06:12:19;;;;;;;23.30;10.17;;;;;5.40;101552.00;;;;10530801;28;20188;-78
2021/11/05 06:17:21;;;;;;;24.27;10.67;;;;;5.40;101560.00;;;;10547605;28;20219;-78
2021/11/05 06:22:23;;;;;;;23.40;10.33;;;;;5.40;101553.00;;;;10546867;28;20279;-78
2021/11/05 06:27:29;;;;;;;18.67;8.90;;;;;5.40;101582.00;;;;10530171;28;20184;-78
2021/11/05 06:32:31;;;;;;;27.70;8.80;;;;;5.30;101570.00;;;;10513547;28;20196;-78
2021/11/05 06:37:33;;;;;;;25.80;8.53;;;;;5.30;101574.00;;;;10548941;28;20613;-78
2021/11/05 06:42:35;;;;;;;19.60;8.23;;;;;5.20;101581.00;;;;10554825;28;20238;-78
2021/11/05 06:47:38;;;;;;;19.43;7.57;;;;;5.20;101589.00;;;;10554478;28;20212;-78
2021/11/05 06:52:40;;;;;;;16.13;7.13;;;;;5.20;101598.00;;;;10554738;28;20192;-78
2021/11/05 06:57:42;;;;;;;16.80;7.33;;;;;5.20;101620.00;;;;10537755;28;20593;-78
2021/11/05 07:02:44;;;;;;;16.13;6.63;;;;;5.20;101627.00;;;;10520833;28;20200;-78
2021/11/05 07:07:46;;;;;;;16.03;7.10;;;;;5.20;101644.00;;;;10512283;28;20185;-78
2021/11/05 07:12:51;;;;;;;27.53;7.73;;;;;5.30;101645.00;;;;10511726;28;20211;-79
2021/11/05 07:17:53;;;;;;;17.60;6.63;;;;;5.30;101655.00;;;;10494801;28;20208;-78
2021/11/05 07:22:55;;;;;;;14.87;6.70;;;;;5.30;101660.00;;;;10494409;28;20249;-78
2021/11/05 07:27:57;;;;;;;24.50;7.67;;;;;5.50;101680.00;;;;10503066;28;20204;-78
2021/11/05 07:32:59;;;;;;;26.80;13.40;;;;;5.60;101688.00;;;;10511427;28;20193;-78
2021/11/05 07:38:02;;;;;;;25.47;11.63;;;;;5.70;101683.00;;;;10527752;28;20212;-78
2021/11/05 07:43:04;;;;;;;23.87;13.33;;;;;5.90;101699.00;;;;10510573;28;20205;-78
2021/11/05 07:48:06;;;;;;;18.27;9.97;;;;;6.10;101717.00;;;;10509821;28;20219;-78
2021/11/05 07:53:08;;;;;;;21.60;9.63;;;;;6.30;101710.00;;;;10526728;28;20602;-78
2021/11/05 07:58:10;;;;;;;18.83;8.27;;;;;6.50;101721.00;;;;10526316;28;20315;-78
2021/11/05 08:03:12;;;;;;;24.33;9.93;;;;;6.80;101727.00;;;;10498288;28;20200;-78
2021/11/05 08:08:15;;;;;;;24.23;10.07;;;;;7.00;101741.00;;;;10535043;28;20215;-78
2021/11/05 08:13:18;;;;;;;36.53;12.57;;;;;7.20;101750.00;;;;10568371;28;20237;-78
2021/11/05 08:18:19;;;;;;;35.90;13.60;;;;;7.60;101750.00;;;;10517783;28;20265;-78
2021/11/05 08:23:22;;;;;;;59.17;15.57;;;;;8.20;101766.00;;;;10517883;28;20189;-78
2021/11/05 08:28:24;;;;;;;64.13;17.30;;;;;8.90;101795.00;;;;10530351;28;20205;-78
2021/11/05 08:33:26;;;;;;;59.50;16.30;;;;;8.70;101803.00;;;;10509338;28;20189;-78
2021/11/05 08:38:30;;;;;;;56.07;14.73;;;;;8.60;101803.00;;;;10492252;28;20237;-78
2021/11/05 08:43:32;;;;;;;60.53;16.67;;;;;8.70;101799.00;;;;10491784;28;20197;-78
2021/11/05 08:48:35;;;;;;;53.80;18.07;;;;;9.50;101826.00;;;;10524453;28;20200;-78
2021/11/05 08:53:40;;;;;;;39.97;14.80;;;;;9.90;101819.00;;;;10507974;28;20205;-78
2021/11/05 08:58:43;;;;;;;40.20;13.27;;;;;10.40;101830.00;;;;10513649;28;20269;-78
2021/11/05 09:03:44;;;;;;;37.17;11.50;;;;;10.70;101830.00;;;;10566418;28;20200;-78
2021/11/05 09:08:48;;;;;;;31.73;11.53;;;;;10.90;101836.00;;;;10516121;28;20196;-78
2021/11/05 09:13:50;;;;;;;32.73;12.03;;;;;11.00;101839.00;;;;10549103;28;20245;-78
2021/11/05 09:18:52;;;;;;;38.27;12.60;;;;;11.10;101845.00;;;;10548757;28;20216;-78
2021/11/05 09:23:55;;;;;;;40.07;12.90;;;;;11.30;101825.00;;;;10532173;28;20249;-78
2021/11/05 09:28:57;;;;;;;44.00;11.30;;;;;11.50;101838.00;;;;10548682;28;20180;-78
2021/11/05 09:33:59;;;;;;;28.57;8.87;;;;;11.60;101843.00;;;;10506603;28;20197;-78
2021/11/05 09:39:02;;;;;;;20.30;7.20;;;;;11.70;101858.00;;;;10489946;28;20189;-78
2021/11/05 09:44:04;;;;;;;28.27;8.33;;;;;11.90;101857.00;;;;10489979;28;20193;-78
2021/11/05 09:49:06;;;;;;;27.57;8.37;;;;;12.00;101872.00;;;;10506947;28;20212;-78
2021/11/05 09:54:09;;;;;;;15.53;6.63;;;;;12.10;101865.00;;;;10507097;28;20200;-78
2021/11/05 09:59:11;;;;;;;20.13;5.93;;;;;12.20;101881.00;;;;10500913;28;20196;-78
2021/11/05 10:04:13;;;;;;;13.73;5.10;;;;;12.40;101891.00;;;;10514876;28;20231;-78
2021/11/05 10:09:18;;;;;;;20.23;6.63;;;;;12.60;101886.00;;;;10564570;28;20241;-78
2021/11/05 10:14:20;;;;;;;18.33;6.00;;;;;12.90;101897.00;;;;10543009;28;20200;-77
2021/11/05 10:19:23;;;;;;;24.17;8.13;;;;;13.20;101893.00;;;;10528088;28;20192;-77
2021/11/05 10:24:27;;;;;;;26.70;9.97;;;;;13.00;101908.00;;;;10578604;28;20291;-78
2021/11/05 10:29:32;;;;;;;22.43;7.50;;;;;13.10;101899.00;;;;10578913;28;20184;-78
2021/11/05 10:34:54;;;;;;;17.87;5.83;;;;;13.00;101897.00;;;;10561101;28;20204;-78
2021/11/05 10:39:57;;;;;;;8.63;2.97;;;;;13.60;101900.00;;;;10544458;28;20199;-78
2021/11/05 10:45:17;;;;;;;9.27;3.77;;;;;14.60;101913.00;;;;10546985;28;20213;-77
2021/11/05 10:50:45;;;;;;;13.10;3.70;;;;;14.70;101913.00;;;;10560885;28;20225;-78
2021/11/05 10:56:04;;;;;;;11.13;3.77;;;;;14.50;101915.00;;;;10538766;28;20216;-78
2021/11/05 11:01:09;;;;;;;10.90;4.07;;;;;14.90;101930.00;;;;10520180;28;20651;-78
2021/11/05 11:06:20;;;;;;;5.90;3.30;;;;;14.20;101918.00;;;;10540691;28;20237;-78
2021/11/05 11:11:42;;;;;;;8.77;3.57;;;;;14.10;101930.00;;;;10560520;28;20188;-78
2021/11/05 11:16:58;;;;;;;9.10;4.07;;;;;14.20;101928.00;;;;10560338;28;20211;-78
2021/11/05 11:22:09;;;;;;;6.53;4.20;;;;;14.10;101938.00;;;;10558461;28;20886;-78
2021/11/05 11:27:11;;;;;;;10.13;4.83;;;;;13.60;101938.00;;;;10553338;28;20188;-78
2021/11/05 11:32:28;;;;;;;10.97;6.13;;;;;13.20;101939.00;;;;10555606;28;20200;-78
2021/11/05 11:37:33;;;;;;;8.97;6.23;;;;;12.90;101939.00;;;;10553465;28;20299;-78
2021/11/05 11:42:38;;;;;;;14.10;6.60;;;;;12.70;101921.00;;;;10553234;28;20197;-78
2021/11/05 11:47:42;;;;;;;12.23;5.20;;;;;12.30;101932.00;;;;10536287;28;20223;-78
2021/11/05 11:52:44;;;;;;;13.57;6.30;;;;;11.70;101936.00;;;;10552968;28;20176;-79
2021/11/05 11:57:47;;;;;;;13.87;7.67;;;;;11.40;101938.00;;;;10551947;28;20570;-78
2021/11/05 12:03:04;;;;;;;16.80;9.57;;;;;11.40;101937.00;;;;10510909;28;20717;-78
2021/11/05 12:08:23;;;;;;;17.00;10.87;;;;;11.10;101925.00;;;;10509008;28;20188;-78
2021/11/05 12:13:34;;;;;;;20.10;10.33;;;;;10.80;101936.00;;;;10534993;28;20196;-79
2021/11/05 12:18:54;;;;;;;13.77;5.93;;;;;10.80;101926.00;;;;10567972;28;20200;-79
2021/11/05 12:24:15;;;;;;;5.73;2.30;;;;;10.80;101936.00;;;;10517696;28;20199;-78
2021/11/05 12:29:33;;;;;;;5.07;2.10;;;;;10.90;101953.00;;;;10535224;28;20193;-78
2021/11/05 12:34:39;;;;;;;6.37;2.50;;;;;11.30;101946.00;;;;10566952;28;20200;-79
2021/11/05 12:39:41;;;;;;;3.97;2.40;;;;;11.70;101955.00;;;;10534651;28;20197;-78
2021/11/05 12:44:56;;;;;;;5.47;1.70;;;;;12.00;101950.00;;;;10551413;28;20196;-78
2021/11/05 12:49:59;;;;;;;8.07;2.57;;;;;12.80;101968.00;;;;10534516;28;20223;-78
2021/11/05 12:55:03;;;;;;;9.80;3.23;;;;;13.10;101982.00;;;;10518302;28;20207;-78
2021/11/05 13:00:10;;;;;;;22.00;8.17;;;;;13.00;101988.00;;;;10534433;28;20271;-78
2021/11/05 13:05:12;;;;;;;23.43;10.03;;;;;13.00;101977.00;;;;10550413;28;20222;-77
2021/11/05 13:10:25;;;;;;;31.00;12.13;;;;;13.20;101985.00;;;;10550838;28;20188;-77
2021/11/05 13:15:33;;;;;;;31.57;12.70;;;;;12.90;101989.00;;;;10509919;28;20216;-78
2021/11/05 13:20:38;;;;;;;37.20;13.10;;;;;12.40;101989.00;;;;10507689;28;20200;-77
2021/11/05 13:25:45;;;;;;;23.37;9.87;;;;;12.00;101986.00;;;;10507339;28;20189;-77
2021/11/05 13:30:56;;;;;;;30.97;11.17;;;;;11.90;102001.00;;;;10531747;28;20192;-77
2021/11/05 13:36:03;;;;;;;25.33;10.03;;;;;11.90;101998.00;;;;10548473;28;20212;-77
2021/11/05 13:41:11;;;;;;;24.20;10.10;;;;;11.90;102008.00;;;;10548463;28;20261;-77
2021/11/05 13:46:18;;;;;;;21.20;8.43;;;;;12.00;102009.00;;;;10530849;28;20281;-77
2021/11/05 13:51:33;;;;;;;20.23;8.23;;;;;12.00;102014.00;;;;10539950;28;20197;-77
2021/11/05 13:56:43;;;;;;;30.17;7.97;;;;;11.80;102023.00;;;;10506147;28;20215;-77
2021/11/05 14:01:48;;;;;;;21.53;9.20;;;;;11.70;102020.00;;;;10515280;28;20208;-77
2021/11/05 14:06:55;;;;;;;24.57;9.23;;;;;11.70;102022.00;;;;10531116;28;20230;-77
2021/11/05 14:12:00;;;;;;;26.40;9.43;;;;;11.60;102033.00;;;;10530565;28;20601;-77
2021/11/05 14:17:24;;;;;;;21.67;7.03;;;;;11.50;102035.00;;;;10547857;28;20261;-77
2021/11/05 14:22:47;;;;;;;15.60;6.53;;;;;11.40;102045.00;;;;10531634;28;20231;-76
2021/11/05 14:27:50;;;;;;;13.70;4.27;;;;;11.20;102043.00;;;;10529974;28;20188;-77
2021/11/05 14:32:53;;;;;;;13.40;4.83;;;;;11.20;102046.00;;;;10530056;28;20224;-77
2021/11/05 14:37:59;;;;;;;14.97;3.93;;;;;11.40;102040.00;;;;10529743;28;20292;-77
2021/11/05 14:43:09;;;;;;;11.47;4.03;;;;;11.40;102050.00;;;;10546560;28;20184;-77
2021/11/05 14:48:19;;;;;;;20.63;4.73;;;;;11.40;102060.00;;;;10529962;28;20204;-77
2021/11/05 14:53:35;;;;;;;18.13;4.03;;;;;11.30;102063.00;;;;10546862;28;20196;-77
2021/11/05 14:58:42;;;;;;;10.73;3.13;;;;;11.20;102068.00;;;;10532364;28;20804;-77
2021/11/05 15:03:52;;;;;;;10.73;3.70;;;;;11.20;102059.00;;;;10555306;28;20571;-77
2021/11/05 15:08:56;;;;;;;10.53;2.87;;;;;11.10;102083.00;;;;10511852;28;20192;-77
2021/11/05 15:13:59;;;;;;;11.87;2.90;;;;;11.10;102064.00;;;;10512469;28;20189;-77
2021/11/05 15:19:01;;;;;;;6.80;2.53;;;;;11.00;102078.00;;;;10511545;28;20680;-77
2021/11/05 15:24:03;;;;;;;6.00;2.20;;;;;10.90;102080.00;;;;10511598;28;20189;-77
2021/11/05 15:29:05;;;;;;;7.83;2.50;;;;;10.80;102085.00;;;;10511362;28;20261;-77
2021/11/05 15:34:08;;;;;;;10.30;3.13;;;;;10.70;102089.00;;;;10525177;28;20196;-77
2021/11/05 15:39:10;;;;;;;8.70;2.83;;;;;10.70;102092.00;;;;10536462;28;20234;-77
2021/11/05 15:44:12;;;;;;;8.80;2.83;;;;;10.60;102089.00;;;;10535554;28;20287;-77
2021/11/05 15:49:14;;;;;;;14.60;3.83;;;;;10.50;102089.00;;;;10518794;28;20236;-77
2021/11/05 15:54:16;;;;;;;12.63;3.77;;;;;10.30;102105.00;;;;10535653;28;20200;-77
2021/11/05 15:59:18;;;;;;;15.77;4.37;;;;;10.20;102110.00;;;;10534851;28;20204;-77
2021/11/05 16:04:19;;;;;;;14.97;5.10;;;;;10.00;102117.00;;;;10551837;28;20238;-77
2021/11/05 16:09:22;;;;;;;15.97;4.87;;;;;9.90;102109.00;;;;10517538;28;20241;-77
2021/11/05 16:14:24;;;;;;;14.10;4.70;;;;;9.90;102119.00;;;;10551226;28;20196;-77
2021/11/05 16:19:27;;;;;;;16.87;6.37;;;;;9.80;102125.00;;;;10551188;28;20193;-77
2021/11/05 16:24:28;;;;;;;24.87;6.70;;;;;9.80;102109.00;;;;10534125;28;20248;-77
2021/11/05 16:29:31;;;;;;;29.27;11.07;;;;;9.80;102118.00;;;;10567109;28;20287;-77
2021/11/05 16:34:33;;;;;;;27.13;9.77;;;;;9.80;102130.00;;;;10567284;28;20215;-77
2021/11/05 16:39:36;;;;;;;29.63;8.73;;;;;9.90;102137.00;;;;10549757;28;20212;-77
2021/11/05 16:44:38;;;;;;;26.27;8.20;;;;;9.90;102143.00;;;;10532984;28;20184;-77
2021/11/05 16:49:40;;;;;;;28.20;7.50;;;;;9.90;102153.00;;;;10516285;28;20208;-77
2021/11/05 16:54:43;;;;;;;25.50;8.07;;;;;9.80;102161.00;;;;10515829;28;20184;-77
2021/11/05 16:59:44;;;;;;;28.00;7.33;;;;;9.80;102164.00;;;;10549892;28;20205;-77
2021/11/05 17:04:46;;;;;;;27.03;7.90;;;;;9.70;102167.00;;;;10523769;28;20667;-77
2021/11/05 17:09:48;;;;;;;29.20;9.33;;;;;9.70;102181.00;;;;10541879;28;20230;-77
2021/11/05 17:14:50;;;;;;;30.23;8.27;;;;;9.60;102195.00;;;;10541676;28;20238;-77
2021/11/05 17:19:52;;;;;;;25.73;8.33;;;;;9.40;102197.00;;;;10522997;28;20204;-77
2021/11/05 17:24:54;;;;;;;33.73;9.07;;;;;9.20;102215.00;;;;10540076;28;20242;-77
2021/11/05 17:29:56;;;;;;;32.40;9.83;;;;;9.00;102218.00;;;;10539879;28;20185;-77
2021/11/05 17:34:58;;;;;;;25.40;8.97;;;;;8.80;102220.00;;;;10540519;28;20250;-77
2021/11/05 17:40:00;;;;;;;25.70;8.47;;;;;8.70;102230.00;;;;10506463;28;20213;-77
2021/11/05 17:45:03;;;;;;;25.07;7.37;;;;;8.60;102248.00;;;;10539618;28;20242;-77
2021/11/05 17:50:07;;;;;;;19.53;7.33;;;;;8.50;102252.00;;;;10506084;28;20227;-77
2021/11/05 17:55:11;;;;;;;20.80;7.20;;;;;8.50;102259.00;;;;10522580;28;20214;-77
2021/11/05 18:00:16;;;;;;;24.13;6.83;;;;;8.40;102265.00;;;;10505752;28;20256;-77
2021/11/05 18:05:18;;;;;;;20.03;7.17;;;;;8.40;102265.00;;;;10539448;28;20205;-77
2021/11/05 18:10:21;;;;;;;22.07;6.70;;;;;8.40;102265.00;;;;10522954;28;20189;-77
2021/11/05 18:15:23;;;;;;;24.63;6.27;;;;;8.40;102269.00;;;;10538563;28;20185;-77
2021/11/05 18:20:25;;;;;;;13.90;6.00;;;;;8.40;102271.00;;;;10505157;28;20220;-77
2021/11/05 18:25:27;;;;;;;18.43;7.13;;;;;8.30;102276.00;;;;10538796;28;20193;-77
2021/11/05 18:30:29;;;;;;;14.43;6.93;;;;;8.10;102279.00;;;;10543985;28;20265;-77
2021/11/05 18:35:32;;;;;;;16.90;6.10;;;;;7.90;102272.00;;;;10521763;28;20192;-77
2021/11/05 18:40:34;;;;;;;13.93;6.53;;;;;7.80;102277.00;;;;10538029;28;20192;-77
2021/11/05 18:45:37;;;;;;;15.47;6.00;;;;;7.60;102279.00;;;;10537938;28;20609;-77
2021/11/05 18:50:40;;;;;;;18.23;6.27;;;;;7.50;102276.00;;;;10537927;28;20196;-77
2021/11/05 18:55:42;;;;;;;17.57;5.90;;;;;7.40;102288.00;;;;10537205;28;20188;-77
2021/11/05 19:00:47;;;;;;;18.33;5.60;;;;;7.30;102282.00;;;;10553607;28;20196;-77
2021/11/05 19:05:55;;;;;;;8.63;4.93;;;;;7.20;102286.00;;;;10553957;28;20651;-77
2021/11/05 19:10:58;;;;;;;10.90;5.30;;;;;7.20;102290.00;;;;10571030;28;20192;-77
2021/11/05 19:16:03;;;;;;;11.07;5.57;;;;;7.30;102303.00;;;;10536905;28;20250;-77
2021/11/05 19:21:07;;;;;;;12.83;6.17;;;;;7.30;102305.00;;;;10537210;28;20188;-77
2021/11/05 19:26:09;;;;;;;18.53;5.43;;;;;7.30;102315.00;;;;10519919;28;20245;-77
2021/11/05 19:31:11;;;;;;;18.63;6.00;;;;;7.20;102325.00;;;;10520342;28;20563;-77
2021/11/05 19:36:13;;;;;;;9.03;5.80;;;;;7.20;102319.00;;;;10553325;28;20724;-77
2021/11/05 19:41:16;;;;;;;13.97;6.17;;;;;7.10;102331.00;;;;10553191;28;20192;-77
2021/11/05 19:46:18;;;;;;;10.77;6.33;;;;;7.10;102338.00;;;;10535550;28;20291;-77
2021/11/05 19:51:20;;;;;;;13.37;7.10;;;;;7.00;102336.00;;;;10536340;28;20193;-77
2021/11/05 19:56:22;;;;;;;12.13;6.77;;;;;6.90;102346.00;;;;10519016;28;20748;-77
2021/11/05 20:01:25;;;;;;;19.13;7.57;;;;;6.90;102345.00;;;;10519164;28;20204;-77
2021/11/05 20:06:27;;;;;;;18.23;8.63;;;;;6.90;102346.00;;;;10552151;28;20204;-77
2021/11/05 20:11:30;;;;;;;13.67;8.43;;;;;6.90;102340.00;;;;10518837;28;20200;-77
2021/11/05 20:16:32;;;;;;;17.10;8.87;;;;;6.90;102336.00;;;;10551628;28;20259;-77
2021/11/05 20:21:34;;;;;;;15.80;9.70;;;;;6.90;102341.00;;;;10568831;28;20215;-77
2021/11/05 20:26:36;;;;;;;17.27;10.33;;;;;7.00;102344.00;;;;10551093;28;20188;-77
2021/11/05 20:31:38;;;;;;;23.33;11.20;;;;;6.90;102348.00;;;;10534314;28;20189;-77
2021/11/05 20:36:43;;;;;;;20.80;12.47;;;;;6.80;102359.00;;;;10517841;28;20256;-77
2021/11/05 20:41:45;;;;;;;19.97;12.63;;;;;6.70;102362.00;;;;10551076;28;20203;-77
2021/11/05 20:46:47;;;;;;;21.00;12.03;;;;;6.70;102375.00;;;;10550353;28;20285;-77
2021/11/05 20:51:49;;;;;;;17.70;11.93;;;;;6.60;102367.00;;;;10516935;28;20196;-77
2021/11/05 20:56:52;;;;;;;24.83;12.20;;;;;6.50;102362.00;;;;10548680;28;20243;-77
2021/11/05 21:01:53;;;;;;;21.57;12.10;;;;;6.40;102370.00;;;;10517068;28;20521;-77
2021/11/05 21:06:55;;;;;;;23.03;12.47;;;;;6.20;102356.00;;;;10491431;28;20193;-77
2021/11/05 21:11:57;;;;;;;19.97;12.10;;;;;6.10;102371.00;;;;10490939;28;20197;-77
2021/11/05 21:16:59;;;;;;;24.00;13.20;;;;;6.00;102383.00;;;;10541300;28;20233;-77
2021/11/05 21:22:02;;;;;;;20.40;12.07;;;;;5.90;102386.00;;;;10516079;28;20279;-77
2021/11/05 21:27:10;;;;;;;24.77;13.07;;;;;5.90;102374.00;;;;10523257;28;20193;-77
2021/11/05 21:32:12;;;;;;;19.13;12.17;;;;;5.80;102382.00;;;;10542958;28;20223;-77
2021/11/05 21:37:16;;;;;;;22.07;11.90;;;;;5.80;102383.00;;;;10548366;28;20296;-77
2021/11/05 21:42:18;;;;;;;19.97;11.73;;;;;5.60;102385.00;;;;10531396;28;20230;-77
2021/11/05 21:47:20;;;;;;;21.63;10.93;;;;;5.60;102393.00;;;;10531236;28;20213;-77
2021/11/05 21:52:22;;;;;;;15.47;10.77;;;;;5.50;102386.00;;;;10531612;28;20559;-77
2021/11/05 21:57:24;;;;;;;25.27;11.50;;;;;5.50;102387.00;;;;10548340;28;20264;-77
2021/11/05 22:02:26;;;;;;;19.83;12.10;;;;;5.40;102381.00;;;;10548223;28;20185;-77
2021/11/05 22:07:28;;;;;;;22.43;12.93;;;;;5.40;102390.00;;;;10547220;28;20200;-77
2021/11/05 22:12:30;;;;;;;20.10;12.17;;;;;5.50;102381.00;;;;10548066;28;20559;-77
2021/11/05 22:17:33;;;;;;;29.63;13.00;;;;;5.50;102401.00;;;;10530903;28;20285;-77
2021/11/05 22:22:35;;;;;;;21.10;12.83;;;;;5.50;102393.00;;;;10547263;28;20196;-77
2021/11/05 22:27:40;;;;;;;20.77;12.67;;;;;5.40;102395.00;;;;10547513;28;20184;-78
2021/11/05 22:32:42;;;;;;;23.27;12.43;;;;;5.40;102397.00;;;;10530748;28;20662;-77
2021/11/05 22:37:44;;;;;;;21.43;12.73;;;;;5.30;102398.00;;;;10530952;28;20268;-77
2021/11/05 22:43:04;;;;;;;22.93;13.23;;;;;5.30;102400.00;;;;10532138;28;20203;-77
2021/11/05 22:48:06;;;;;;;22.43;13.80;;;;;5.20;102407.00;;;;10513982;28;20261;-77
2021/11/05 22:53:08;;;;;;;26.50;14.23;;;;;5.20;102406.00;;;;10530583;28;20196;-78
2021/11/05 22:58:12;;;;;;;23.40;13.83;;;;;5.10;102402.00;;;;10563856;28;20215;-78
2021/11/05 23:03:17;;;;;;;20.67;14.47;;;;;5.10;102377.00;;;;10529719;28;20221;-77
2021/11/05 23:08:22;;;;;;;25.83;14.77;;;;;5.10;102391.00;;;;10529776;28;20186;-78
2021/11/05 23:13:26;;;;;;;21.33;13.97;;;;;5.00;102400.00;;;;10546563;28;20651;-77
2021/11/05 23:18:29;;;;;;;26.97;14.27;;;;;5.00;102394.00;;;;10564017;28;20211;-77
2021/11/05 23:23:32;;;;;;;22.33;15.57;;;;;5.00;102402.00;;;;10537343;28;20198;-77
2021/11/05 23:28:34;;;;;;;21.13;13.87;;;;;5.00;102405.00;;;;10520661;28;20716;-77
2021/11/05 23:33:35;;;;;;;21.70;13.87;;;;;4.90;102406.00;;;;10537226;28;20218;-77
2021/11/05 23:38:37;;;;;;;25.60;15.03;;;;;4.90;102394.00;;;;10536638;28;20208;-78
2021/11/05 23:43:39;;;;;;;26.57;15.27;;;;;4.80;102392.00;;;;10569954;28;20712;-77
2021/11/05 23:48:41;;;;;;;23.67;15.27;;;;;4.80;102396.00;;;;10552435;28;20212;-77
2021/11/05 23:53:43;;;;;;;26.53;14.60;;;;;4.70;102398.00;;;;10536364;28;20192;-78
2021/11/05 23:58:45;;;;;;;23.30;15.17;;;;;4.70;102402.00;;;;10535565;28;20243;-78
